Time;durP1;ratioP1;P1;durP2;ratioP2;P2;SDS_P1;SDS_P2;PMS_P1;PMS_P2;Temp;Humidity;BMP_temperature;BMP_pressure;BME280_temperature;BME280_humidity;BME280_pressure;Samples;Min_cycle;Max_cycle;Signal;HPM_P1;HPM_P2
2021/10/01 09:46:57;;;;;;;2.50;1.50;;;14.80;46.40;;;;;;4939339;29;20213;-84
2021/10/01 09:49:33;;;;;;;3.38;2.03;;;14.90;46.50;;;;;;4948398;29;20465;-86
2021/10/01 09:52:01;;;;;;;1.80;1.33;;;15.00;46.00;;;;;;4951485;29;20231;-85
2021/10/01 09:54:29;;;;;;;2.50;1.50;;;15.00;46.70;;;;;;4965921;29;20423;-84
2021/10/01 09:57:01;;;;;;;2.17;1.50;;;15.00;46.80;;;;;;4960768;29;20470;-86
2021/10/01 09:59:30;;;;;;;2.40;1.97;;;15.30;46.60;;;;;;4960241;29;20452;-83
2021/10/01 10:02:10;;;;;;;1.93;1.30;;;15.30;46.00;;;;;;4959190;28;20484;-85
2021/10/01 10:04:41;;;;;;;2.30;1.55;;;15.40;46.10;;;;;;4961481;29;20491;-83
2021/10/01 10:07:16;;;;;;;4.17;2.00;;;15.50;45.60;;;;;;4960563;29;20212;-82
2021/10/01 10:09:46;;;;;;;3.80;1.90;;;15.60;46.00;;;;;;4959437;29;20613;-81
2021/10/01 10:12:16;;;;;;;3.87;2.17;;;15.60;45.50;;;;;;4960684;28;21004;-82
2021/10/01 10:14:48;;;;;;;3.77;2.23;;;15.60;46.00;;;;;;4964538;29;20444;-83
2021/10/01 10:17:20;;;;;;;2.33;1.57;;;15.60;46.10;;;;;;4976959;28;20464;-82
2021/10/01 10:19:47;;;;;;;1.80;1.70;;;15.70;44.80;;;;;;4972863;28;21072;-83
2021/10/01 10:22:14;;;;;;;2.17;2.00;;;15.70;44.80;;;;;;4977819;28;20472;-83
2021/10/01 10:24:41;;;;;;;4.27;2.07;;;15.90;45.00;;;;;;4963067;29;20493;-82
2021/10/01 10:27:10;;;;;;;3.13;2.33;;;16.00;43.80;;;;;;4977916;28;20563;-82
2021/10/01 10:29:39;;;;;;;2.90;2.00;;;15.90;43.00;;;;;;4971971;28;21012;-82
2021/10/01 10:32:12;;;;;;;3.33;2.37;;;16.00;43.20;;;;;;4992158;28;20469;-83
2021/10/01 10:34:51;;;;;;;2.90;2.13;;;16.20;42.20;;;;;;4973029;29;20448;-83
2021/10/01 10:37:19;;;;;;;3.40;1.97;;;16.20;42.60;;;;;;4976425;28;20449;-83
2021/10/01 10:39:54;;;;;;;4.73;2.30;;;16.30;41.90;;;;;;4977559;28;20448;-84
2021/10/01 10:42:32;;;;;;;12.43;3.37;;;16.40;42.40;;;;;;4965314;28;21125;-83
2021/10/01 10:45:08;;;;;;;3.37;2.57;;;16.50;41.70;;;;;;4961487;29;20616;-82
2021/10/01 10:47:47;;;;;;;8.87;2.70;;;16.30;41.80;;;;;;4961329;29;20485;-82
2021/10/01 10:50:51;;;;;;;3.70;2.17;;;16.40;41.30;;;;;;4960802;29;20459;-82
2021/10/01 10:53:32;;;;;;;3.63;2.00;;;16.50;41.10;;;;;;4961605;29;20449;-83
2021/10/01 10:56:25;;;;;;;4.80;2.17;;;16.70;40.70;;;;;;4959267;29;20452;-85
2021/10/01 10:58:53;;;;;;;2.17;1.97;;;17.00;41.10;;;;;;4945822;29;20540;-82
2021/10/01 11:01:36;;;;;;;2.33;2.13;;;17.10;39.70;;;;;;4965701;28;20505;-83
2021/10/01 11:04:39;;;;;;;7.80;2.00;;;17.10;38.00;;;;;;4969569;29;20489;-83
2021/10/01 11:07:10;;;;;;;4.13;1.90;;;17.10;38.30;;;;;;4970186;29;20466;-83
2021/10/01 11:09:39;;;;;;;2.20;1.80;;;17.20;39.40;;;;;;4968581;28;20455;-83
2021/10/01 11:12:25;;;;;;;1.93;1.47;;;17.00;37.90;;;;;;4969060;28;20481;-81
2021/10/01 11:15:16;;;;;;;1.43;1.30;;;17.00;39.40;;;;;;4962233;29;20464;-81
2021/10/01 11:17:44;;;;;;;2.83;1.57;;;17.20;37.90;;;;;;4953355;29;20484;-81
2021/10/01 11:20:35;;;;;;;2.30;1.37;;;17.30;35.90;;;;;;4959518;29;21025;-80
2021/10/01 11:23:17;;;;;;;2.43;1.70;;;17.40;36.40;;;;;;4958647;28;20530;-82
2021/10/01 11:25:44;;;;;;;1.40;1.27;;;17.20;34.10;;;;;;4957803;28;20486;-81
2021/10/01 11:28:12;;;;;;;3.70;1.40;;;17.30;36.20;;;;;;4963318;28;20476;-82
2021/10/01 11:30:40;;;;;;;1.83;1.73;;;17.40;36.40;;;;;;4974476;28;20492;-83
2021/10/01 11:33:09;;;;;;;1.90;1.63;;;17.50;35.10;;;;;;4973901;28;20459;-82
2021/10/01 11:35:52;;;;;;;2.20;1.50;;;17.70;35.80;;;;;;4970359;28;20463;-80
2021/10/01 11:38:22;;;;;;;1.23;1.07;;;17.90;33.50;;;;;;4947285;29;20470;-80
2021/10/01 11:40:49;;;;;;;2.67;1.63;;;17.90;33.30;;;;;;4957780;28;20540;-80
2021/10/01 11:43:16;;;;;;;5.33;1.97;;;18.00;32.30;;;;;;4957797;28;20897;-80
2021/10/01 11:45:45;;;;;;;3.07;1.30;;;18.00;30.70;;;;;;4957114;29;20521;-80
2021/10/01 11:48:14;;;;;;;3.00;1.30;;;18.00;30.70;;;;;;4955300;29;20493;-80
2021/10/01 11:50:43;;;;;;;4.20;1.50;;;18.10;32.50;;;;;;4971119;28;20452;-80
2021/10/01 11:53:18;;;;;;;2.87;1.40;;;18.20;32.90;;;;;;4971234;29;20438;-82
2021/10/01 11:55:53;;;;;;;2.87;1.77;;;18.20;32.30;;;;;;4968377;29;20448;-80
2021/10/01 11:58:21;;;;;;;4.13;1.70;;;18.20;32.20;;;;;;4959314;29;20464;-82
2021/10/01 12:00:48;;;;;;;1.50;1.20;;;18.20;32.00;;;;;;4956300;29;20481;-81
2021/10/01 12:03:17;;;;;;;2.67;1.40;;;18.30;32.60;;;;;;4956513;29;20457;-81
2021/10/01 12:05:48;;;;;;;4.87;1.50;;;18.40;33.10;;;;;;4956990;29;20520;-80
2021/10/01 12:08:19;;;;;;;3.30;1.60;;;18.10;33.60;;;;;;4956835;28;20461;-80
2021/10/01 12:10:47;;;;;;;4.23;1.60;;;18.30;34.50;;;;;;4940327;29;20551;-79
2021/10/01 12:13:22;;;;;;;3.50;1.70;;;18.60;33.00;;;;;;4956965;29;20463;-85
2021/10/01 12:15:51;;;;;;;1.90;1.40;;;18.70;33.30;;;;;;4961581;29;20451;-85
2021/10/01 12:18:33;;;;;;;5.13;1.80;;;18.70;34.20;;;;;;4958360;29;20558;-85
2021/10/01 12:21:02;;;;;;;2.60;1.40;;;18.80;33.20;;;;;;4961366;28;20478;-83
2021/10/01 12:23:31;;;;;;;3.67;1.57;;;19.00;32.60;;;;;;4963415;29;20466;-85
2021/10/01 12:26:19;;;;;;;3.23;1.23;;;19.10;31.90;;;;;;4985977;28;20518;-82
2021/10/01 12:29:04;;;;;;;1.73;1.30;;;19.00;30.70;;;;;;4959487;29;20437;-85
2021/10/01 12:31:36;;;;;;;2.70;1.50;;;19.00;31.60;;;;;;4967216;28;20492;-84
2021/10/01 12:34:05;;;;;;;2.83;1.40;;;18.90;32.10;;;;;;4975329;29;20468;-83
2021/10/01 12:36:32;;;;;;;17.13;2.67;;;19.10;32.50;;;;;;4979382;28;20463;-81
2021/10/01 12:39:01;;;;;;;3.70;1.63;;;19.30;31.70;;;;;;4979267;28;20515;-82
2021/10/01 12:41:29;;;;;;;3.03;1.20;;;19.30;32.50;;;;;;4980537;28;20467;-83
2021/10/01 12:43:59;;;;;;;5.10;1.43;;;19.40;32.20;;;;;;4964429;29;20452;-84
2021/10/01 12:46:42;;;;;;;6.97;2.17;;;19.30;32.30;;;;;;4961388;29;21065;-84
2021/10/01 12:49:14;;;;;;;15.97;2.80;;;19.40;31.50;;;;;;4962439;29;20489;-81
2021/10/01 12:51:44;;;;;;;16.37;2.60;;;19.60;32.50;;;;;;4962354;28;20514;-83
2021/10/01 12:54:24;;;;;;;5.33;1.50;;;19.70;32.30;;;;;;4964246;29;20468;-84
2021/10/01 12:57:18;;;;;;;1.00;0.87;;;19.20;32.60;;;;;;4963334;29;20515;-83
2021/10/01 12:59:47;;;;;;;1.33;1.00;;;18.90;33.30;;;;;;4971380;29;20444;-81
2021/10/01 13:02:18;;;;;;;1.77;1.20;;;19.10;33.00;;;;;;4963266;29;20499;-83
2021/10/01 13:04:47;;;;;;;2.00;1.00;;;19.20;33.40;;;;;;4963078;29;20484;-83
2021/10/01 13:07:23;;;;;;;3.90;1.50;;;19.30;33.60;;;;;;4964369;29;20470;-82
2021/10/01 13:09:50;;;;;;;2.83;1.70;;;19.50;34.80;;;;;;4962346;29;20554;-82
2021/10/01 13:12:31;;;;;;;1.53;1.30;;;19.60;34.80;;;;;;4964548;28;20562;-83
2021/10/01 13:15:12;;;;;;;3.47;1.57;;;19.80;34.00;;;;;;4965193;29;21067;-85
2021/10/01 13:17:41;;;;;;;3.17;1.13;;;19.90;33.90;;;;;;4963339;29;20464;-82
2021/10/01 13:20:09;;;;;;;1.37;1.23;;;19.80;34.80;;;;;;4964342;29;20439;-83
2021/10/01 13:22:58;;;;;;;2.30;1.20;;;19.60;34.30;;;;;;4964305;29;20526;-83
2021/10/01 13:25:32;;;;;;;1.83;1.40;;;19.80;34.70;;;;;;4947933;29;20834;-82
2021/10/01 13:28:05;;;;;;;2.27;1.20;;;19.70;35.10;;;;;;4954805;29;20886;-83
2021/10/01 13:30:33;;;;;;;1.70;1.20;;;19.60;35.00;;;;;;4963409;29;20480;-81
2021/10/01 13:33:04;;;;;;;2.80;1.20;;;19.60;34.90;;;;;;4972504;28;20455;-81
2021/10/01 13:35:31;;;;;;;1.50;1.20;;;19.50;34.50;;;;;;4972067;28;20452;-82
2021/10/01 13:37:59;;;;;;;2.97;1.10;;;19.50;34.90;;;;;;4966626;28;20463;-81
2021/10/01 13:40:26;;;;;;;1.23;1.00;;;19.50;35.20;;;;;;4969107;28;20945;-80
2021/10/01 13:42:53;;;;;;;2.53;1.03;;;19.50;36.10;;;;;;4962945;29;20479;-80
2021/10/01 13:45:20;;;;;;;3.47;1.20;;;19.50;35.80;;;;;;4977329;29;20490;-81
2021/10/01 13:47:47;;;;;;;2.00;1.47;;;19.50;35.40;;;;;;4970242;29;20465;-80
2021/10/01 13:50:16;;;;;;;1.80;1.07;;;19.50;35.00;;;;;;4970415;29;20428;-82
2021/10/01 13:52:43;;;;;;;1.83;1.20;;;19.60;35.50;;;;;;4974049;28;20516;-82
2021/10/01 13:55:12;;;;;;;2.97;1.27;;;19.50;35.40;;;;;;4969975;29;20487;-82
2021/10/01 13:57:39;;;;;;;2.33;1.30;;;19.30;35.80;;;;;;4963151;29;20490;-81
2021/10/01 14:00:08;;;;;;;4.67;1.63;;;19.30;36.70;;;;;;4961665;29;20937;-81
2021/10/01 14:02:36;;;;;;;2.10;1.40;;;19.00;36.70;;;;;;4960969;29;20490;-81
2021/10/01 14:05:05;;;;;;;1.33;1.13;;;18.90;37.40;;;;;;4961899;29;20493;-81
2021/10/01 14:07:34;;;;;;;3.00;1.30;;;18.90;37.80;;;;;;4959979;29;20458;-82
2021/10/01 14:10:01;;;;;;;3.33;1.67;;;19.00;37.90;;;;;;4960538;29;20483;-81
2021/10/01 14:12:28;;;;;;;1.40;1.30;;;19.20;37.00;;;;;;4961206;28;20491;-82
2021/10/01 14:14:56;;;;;;;1.27;1.13;;;19.20;36.90;;;;;;4960758;29;20466;-83
2021/10/01 14:17:24;;;;;;;3.07;1.50;;;19.40;36.50;;;;;;4962520;29;20525;-83
2021/10/01 14:19:51;;;;;;;2.77;1.30;;;19.50;36.10;;;;;;4968762;29;20460;-82
2021/10/01 14:22:19;;;;;;;2.53;1.30;;;19.50;36.70;;;;;;4967748;28;20514;-82
2021/10/01 14:24:47;;;;;;;4.07;1.40;;;19.60;36.40;;;;;;4963447;29;20461;-82
2021/10/01 14:27:14;;;;;;;1.90;1.60;;;19.60;36.30;;;;;;4961145;29;20431;-81
2021/10/01 14:29:41;;;;;;;1.53;1.23;;;19.60;36.10;;;;;;4960205;29;20492;-81
2021/10/01 14:32:09;;;;;;;2.93;1.30;;;19.60;36.00;;;;;;4960496;28;20837;-81
2021/10/01 14:34:36;;;;;;;2.27;1.30;;;19.60;35.90;;;;;;4961754;29;20533;-82
2021/10/01 14:37:04;;;;;;;1.77;1.23;;;19.60;35.90;;;;;;4961549;29;20967;-81
2021/10/01 14:39:31;;;;;;;2.57;1.43;;;19.70;35.50;;;;;;4965706;29;20492;-81
2021/10/01 14:42:00;;;;;;;1.30;1.20;;;19.50;36.20;;;;;;4966393;28;20993;-82
2021/10/01 14:44:27;;;;;;;2.57;1.40;;;19.60;36.90;;;;;;4964019;28;20475;-83
2021/10/01 14:46:54;;;;;;;4.30;1.40;;;19.60;36.30;;;;;;4969583;29;20524;-82
2021/10/01 14:49:22;;;;;;;1.83;1.30;;;19.70;36.70;;;;;;4969541;28;20472;-82
2021/10/01 14:51:50;;;;;;;6.17;1.30;;;19.70;36.80;;;;;;4965309;28;20504;-82
2021/10/01 14:54:17;;;;;;;2.27;1.23;;;19.70;36.90;;;;;;4976824;28;20440;-82
2021/10/01 14:56:44;;;;;;;5.47;1.13;;;19.60;36.90;;;;;;4970923;28;20465;-83
2021/10/01 14:59:12;;;;;;;2.40;1.00;;;19.60;36.90;;;;;;4961811;29;20465;-83
2021/10/01 15:01:39;;;;;;;1.67;1.27;;;19.50;37.30;;;;;;4976924;28;20471;-83
2021/10/01 15:04:07;;;;;;;1.93;1.00;;;19.40;37.60;;;;;;4967525;29;20479;-82
2021/10/01 15:06:33;;;;;;;2.33;1.30;;;19.40;37.50;;;;;;4965343;29;21084;-83
2021/10/01 15:09:00;;;;;;;4.17;1.50;;;19.40;38.20;;;;;;4965404;29;20452;-82
2021/10/01 15:11:27;;;;;;;2.30;1.23;;;19.40;38.20;;;;;;4967312;28;20472;-84
2021/10/01 15:13:55;;;;;;;6.07;1.67;;;19.40;38.20;;;;;;4965658;29;20744;-83
2021/10/01 15:16:24;;;;;;;4.10;1.17;;;19.40;38.20;;;;;;4965598;29;20523;-83
2021/10/01 15:18:51;;;;;;;3.30;1.50;;;19.40;38.20;;;;;;4963544;29;20520;-81
2021/10/01 15:21:18;;;;;;;3.10;1.70;;;19.30;38.10;;;;;;4965682;28;20583;-83
2021/10/01 15:23:45;;;;;;;2.00;1.70;;;19.30;38.10;;;;;;4970241;29;20467;-83
2021/10/01 15:26:12;;;;;;;1.90;1.20;;;19.20;38.10;;;;;;4966592;29;20463;-82
2021/10/01 15:28:39;;;;;;;3.47;1.50;;;19.20;38.10;;;;;;4966699;29;20578;-82
2021/10/01 15:31:06;;;;;;;2.80;2.17;;;19.10;38.00;;;;;;4974142;29;20492;-84
2021/10/01 15:33:35;;;;;;;4.50;1.60;;;19.00;39.30;;;;;;4976371;29;20456;-82
2021/10/01 15:36:02;;;;;;;4.07;1.20;;;18.90;39.10;;;;;;4966524;29;20477;-82
2021/10/01 15:38:31;;;;;;;1.70;1.50;;;18.80;39.40;;;;;;4964082;29;20517;-82
2021/10/01 15:40:58;;;;;;;1.97;1.77;;;18.80;39.90;;;;;;4966666;29;20500;-83
2021/10/01 15:43:25;;;;;;;3.40;1.70;;;18.70;40.60;;;;;;4968772;29;20495;-82
2021/10/01 15:45:54;;;;;;;1.97;1.40;;;18.70;40.60;;;;;;4969151;29;20503;-81
2021/10/01 15:48:23;;;;;;;2.20;1.80;;;18.60;40.40;;;;;;4972993;29;20459;-83
2021/10/01 15:50:52;;;;;;;3.43;1.47;;;18.60;40.50;;;;;;4968417;28;20505;-85
2021/10/01 15:53:19;;;;;;;2.23;1.37;;;18.50;40.50;;;;;;4966389;29;20470;-83
2021/10/01 15:55:46;;;;;;;3.30;1.37;;;18.50;41.20;;;;;;4965580;28;20989;-83
2021/10/01 15:58:13;;;;;;;4.83;1.60;;;18.40;41.50;;;;;;4969653;29;20441;-83
2021/10/01 16:00:42;;;;;;;5.67;1.57;;;18.40;42.00;;;;;;4966863;29;20471;-82
2021/10/01 16:03:10;;;;;;;2.93;1.53;;;18.30;41.90;;;;;;4971387;29;20904;-83
2021/10/01 16:05:38;;;;;;;3.00;1.63;;;18.30;42.00;;;;;;4980140;28;20519;-84
2021/10/01 16:08:07;;;;;;;2.13;1.30;;;18.30;42.20;;;;;;4982202;28;20447;-85
2021/10/01 16:10:35;;;;;;;1.97;1.87;;;18.30;42.30;;;;;;4981623;28;20480;-84
2021/10/01 16:13:02;;;;;;;3.47;1.57;;;18.20;42.80;;;;;;4981943;29;20423;-83
2021/10/01 16:15:30;;;;;;;7.50;1.70;;;18.10;42.90;;;;;;4971431;29;20457;-83
2021/10/01 16:17:57;;;;;;;12.07;2.20;;;18.00;43.00;;;;;;4965923;29;20474;-83
2021/10/01 16:20:28;;;;;;;3.30;2.07;;;17.90;43.40;;;;;;4966481;29;20510;-85
2021/10/01 16:22:56;;;;;;;2.00;1.80;;;17.80;43.90;;;;;;4965010;29;20470;-82
2021/10/01 16:25:26;;;;;;;3.43;1.90;;;17.70;45.10;;;;;;4968604;29;20462;-83
2021/10/01 16:27:55;;;;;;;2.27;1.93;;;17.70;44.70;;;;;;4965175;29;20466;-83
2021/10/01 16:30:22;;;;;;;4.27;1.93;;;17.60;44.90;;;;;;4965840;29;20781;-82
2021/10/01 16:32:49;;;;;;;10.53;2.20;;;17.60;45.50;;;;;;4965492;29;20462;-82
2021/10/01 16:35:16;;;;;;;11.20;2.20;;;17.60;46.30;;;;;;4966018;29;20465;-82
2021/10/01 16:37:43;;;;;;;8.40;1.83;;;17.60;46.40;;;;;;4966860;29;20453;-83
2021/10/01 16:40:11;;;;;;;6.40;1.93;;;17.60;46.60;;;;;;4967183;28;20468;-83
2021/10/01 16:42:41;;;;;;;2.47;2.10;;;17.50;46.50;;;;;;4969598;28;20485;-83
2021/10/01 16:45:09;;;;;;;2.63;2.03;;;17.40;46.40;;;;;;4966987;28;20488;-81
2021/10/01 16:47:36;;;;;;;3.53;2.07;;;17.40;46.70;;;;;;4966093;29;20529;-82
2021/10/01 16:50:04;;;;;;;5.67;2.50;;;17.40;47.20;;;;;;4964382;29;20539;-84
2021/10/01 16:52:33;;;;;;;2.83;1.90;;;17.30;47.70;;;;;;4965003;29;20468;-83
2021/10/01 16:55:01;;;;;;;5.90;2.20;;;17.30;48.40;;;;;;4966898;29;20541;-84
2021/10/01 16:57:28;;;;;;;3.50;1.93;;;17.30;48.80;;;;;;4976867;29;20431;-84
2021/10/01 16:59:56;;;;;;;8.80;3.27;;;17.30;48.80;;;;;;4975089;28;20436;-87
2021/10/01 17:02:23;;;;;;;4.07;2.70;;;17.20;49.20;;;;;;4975945;29;20501;-87
2021/10/01 17:04:50;;;;;;;10.97;3.10;;;17.20;50.10;;;;;;4980975;28;20457;-86
2021/10/01 17:07:18;;;;;;;4.50;2.20;;;17.10;51.00;;;;;;4979932;28;20533;-85
2021/10/01 17:09:45;;;;;;;5.43;2.57;;;16.90;51.50;;;;;;4975646;28;20450;-81
2021/10/01 17:12:12;;;;;;;5.27;2.50;;;16.90;52.40;;;;;;4971815;28;20492;-82
2021/10/01 17:14:39;;;;;;;5.90;2.50;;;16.70;53.50;;;;;;4975828;28;20477;-85
2021/10/01 17:17:07;;;;;;;3.60;2.40;;;16.70;54.80;;;;;;4972452;29;20495;-83
2021/10/01 17:19:34;;;;;;;3.70;2.70;;;16.70;55.50;;;;;;4978190;28;20424;-84
2021/10/01 17:22:02;;;;;;;2.70;2.37;;;16.60;55.40;;;;;;4972955;28;20519;-84
2021/10/01 17:24:29;;;;;;;5.93;2.97;;;16.60;55.40;;;;;;4963532;29;20464;-84
2021/10/01 17:26:57;;;;;;;3.50;2.97;;;16.50;56.20;;;;;;4973980;28;20451;-85
2021/10/01 17:29:24;;;;;;;5.50;2.53;;;16.40;57.30;;;;;;4981909;28;20501;-84
2021/10/01 17:31:51;;;;;;;8.30;3.40;;;16.30;58.20;;;;;;4980057;28;20477;-84
2021/10/01 17:34:20;;;;;;;4.60;2.97;;;16.30;60.00;;;;;;4977326;29;20428;-83
2021/10/01 17:36:47;;;;;;;8.23;3.57;;;16.20;62.00;;;;;;4978133;28;20489;-84
2021/10/01 17:39:14;;;;;;;4.67;3.17;;;16.10;62.80;;;;;;4973041;29;20452;-83
2021/10/01 17:41:41;;;;;;;3.90;2.80;;;16.00;64.10;;;;;;4976640;28;20484;-85
2021/10/01 17:44:09;;;;;;;5.63;3.20;;;16.00;64.10;;;;;;4977790;29;20464;-83
2021/10/01 17:46:36;;;;;;;3.43;3.13;;;15.90;64.40;;;;;;4977812;28;20458;-84
2021/10/01 17:49:03;;;;;;;5.43;3.80;;;15.80;65.20;;;;;;4977899;28;20473;-84
2021/10/01 17:51:32;;;;;;;6.03;3.70;;;15.80;66.90;;;;;;4978548;28;20473;-83
2021/10/01 17:53:59;;;;;;;5.83;3.40;;;15.80;66.40;;;;;;4978670;29;20462;-83
2021/10/01 17:56:26;;;;;;;5.40;3.73;;;15.80;66.40;;;;;;4978378;28;20525;-84
2021/10/01 17:58:53;;;;;;;6.10;3.40;;;15.70;66.70;;;;;;4978732;29;20461;-85
2021/10/01 18:01:20;;;;;;;4.70;3.00;;;15.60;67.60;;;;;;4976758;28;20477;-83
2021/10/01 18:03:47;;;;;;;4.20;3.47;;;15.60;68.10;;;;;;4972674;29;20409;-82
2021/10/01 18:06:14;;;;;;;8.00;4.83;;;15.50;68.40;;;;;;4969899;29;20232;-83
2021/10/01 18:08:43;;;;;;;3.93;3.50;;;15.50;69.10;;;;;;4965111;29;20499;-82
2021/10/01 18:11:10;;;;;;;5.10;4.00;;;15.50;69.70;;;;;;4969691;28;20540;-83
2021/10/01 18:13:36;;;;;;;9.50;4.37;;;15.40;70.40;;;;;;4979502;28;20456;-84
2021/10/01 18:16:04;;;;;;;10.00;5.80;;;15.40;70.90;;;;;;4979999;28;20447;-84
2021/10/01 18:18:31;;;;;;;7.13;4.70;;;15.30;72.40;;;;;;4979767;28;20194;-84
2021/10/01 18:20:58;;;;;;;4.93;4.50;;;15.20;72.30;;;;;;4979822;28;20458;-85
2021/10/01 18:23:26;;;;;;;5.70;4.60;;;15.20;72.30;;;;;;4979559;28;20467;-84
2021/10/01 18:25:57;;;;;;;4.27;3.87;;;15.10;73.40;;;;;;4979559;28;20411;-85
2021/10/01 18:28:24;;;;;;;6.83;4.60;;;15.10;74.10;;;;;;4979839;28;20476;-87
2021/10/01 18:30:51;;;;;;;5.45;4.28;;;15.00;74.40;;;;;;4979523;28;20510;-85
2021/10/01 18:33:18;;;;;;;5.97;4.45;;;15.00;75.10;;;;;;4977118;29;20685;-84
2021/10/01 18:35:45;;;;;;;7.87;4.70;;;14.90;75.80;;;;;;4974424;29;20604;-83
2021/10/01 18:38:14;;;;;;;7.57;5.28;;;14.90;76.40;;;;;;4973671;29;20464;-83
2021/10/01 18:40:42;;;;;;;6.03;4.40;;;14.80;77.00;;;;;;4966465;28;20213;-83
2021/10/01 18:43:11;;;;;;;11.05;5.15;;;14.80;77.90;;;;;;4970910;28;20436;-86
2021/10/01 18:45:39;;;;;;;6.55;5.30;;;14.70;78.20;;;;;;4978843;28;20219;-85
2021/10/01 18:48:07;;;;;;;7.22;5.07;;;14.60;79.40;;;;;;4979489;28;20224;-86
2021/10/01 18:50:34;;;;;;;6.28;5.28;;;14.60;80.50;;;;;;4979749;28;20203;-85
2021/10/01 18:53:02;;;;;;;7.25;4.90;;;14.60;80.50;;;;;;4977462;28;20652;-84
2021/10/01 18:55:29;;;;;;;5.03;4.53;;;14.60;80.50;;;;;;4970880;29;20232;-84
2021/10/01 18:57:56;;;;;;;7.30;4.70;;;14.50;80.60;;;;;;4967481;29;20508;-83
2021/10/01 19:00:25;;;;;;;7.20;4.47;;;14.50;81.40;;;;;;4966348;29;20461;-82
2021/10/01 19:02:52;;;;;;;7.07;5.33;;;14.50;81.60;;;;;;4968967;29;20449;-82
2021/10/01 19:05:21;;;;;;;6.15;4.60;;;14.40;81.90;;;;;;4965369;29;20464;-81
2021/10/01 19:07:48;;;;;;;5.10;3.83;;;14.40;83.70;;;;;;4969592;29;20244;-85
2021/10/01 19:10:15;;;;;;;5.57;4.57;;;14.30;84.50;;;;;;4965547;29;20646;-83
2021/10/01 19:12:42;;;;;;;5.23;4.33;;;14.40;85.00;;;;;;4966658;28;20227;-83
2021/10/01 19:15:10;;;;;;;9.37;6.20;;;14.40;84.60;;;;;;4966645;29;20462;-85
2021/10/01 19:17:38;;;;;;;6.35;5.05;;;14.40;84.10;;;;;;4969291;29;20490;-84
2021/10/01 19:20:07;;;;;;;8.38;4.90;;;14.40;83.80;;;;;;4965769;29;20239;-83
2021/10/01 19:22:42;;;;;;;9.73;5.47;;;14.30;84.40;;;;;;4967138;28;20236;-83
2021/10/01 19:25:14;;;;;;;9.70;5.68;;;14.30;85.60;;;;;;4964166;29;20226;-84
2021/10/01 19:27:47;;;;;;;7.88;5.13;;;14.20;86.90;;;;;;4970232;29;20247;-84
2021/10/01 19:30:23;;;;;;;7.15;5.20;;;14.20;88.40;;;;;;4976324;28;20212;-83
2021/10/01 19:32:54;;;;;;;8.45;5.10;;;14.20;88.60;;;;;;4970048;28;20197;-85
2021/10/01 19:35:21;;;;;;;6.80;4.97;;;14.20;88.60;;;;;;4978830;28;20203;-85
2021/10/01 19:37:49;;;;;;;5.65;5.05;;;14.20;88.90;;;;;;4974174;28;20200;-85
2021/10/01 19:40:17;;;;;;;5.03;4.40;;;14.20;88.60;;;;;;4977614;29;20199;-86
2021/10/01 19:42:44;;;;;;;9.30;5.10;;;14.20;89.60;;;;;;4972957;28;20232;-84
2021/10/01 19:45:13;;;;;;;4.30;3.70;;;14.20;89.90;;;;;;4970371;29;20216;-85
2021/10/01 19:47:40;;;;;;;9.07;4.90;;;14.20;90.00;;;;;;4965568;29;20495;-82
2021/10/01 19:50:10;;;;;;;6.63;4.70;;;14.10;90.20;;;;;;4961836;29;20238;-83
2021/10/01 19:52:37;;;;;;;5.72;4.38;;;14.10;90.70;;;;;;4962411;28;20243;-84
2021/10/01 19:55:07;;;;;;;5.38;4.45;;;14.00;90.70;;;;;;4962431;29;20283;-83
2021/10/01 19:57:34;;;;;;;6.75;4.88;;;14.10;91.10;;;;;;4963758;29;20203;-83
2021/10/01 20:00:06;;;;;;;4.60;3.90;;;14.00;91.10;;;;;;4962339;29;20210;-82
2021/10/01 20:02:34;;;;;;;4.75;4.10;;;14.00;91.20;;;;;;4962167;28;20239;-83
2021/10/01 20:05:01;;;;;;;4.10;3.70;;;14.00;91.60;;;;;;4962334;29;20206;-83
2021/10/01 20:07:30;;;;;;;6.78;4.05;;;13.90;91.90;;;;;;4969047;29;20254;-84
2021/10/01 20:09:57;;;;;;;4.32;3.92;;;13.90;92.10;;;;;;4974282;29;20245;-82
2021/10/01 20:12:24;;;;;;;4.45;3.90;;;13.90;92.80;;;;;;4963079;28;20270;-84
2021/10/01 20:14:52;;;;;;;7.45;4.65;;;13.90;92.90;;;;;;4975135;29;20219;-84
2021/10/01 20:17:19;;;;;;;7.10;4.80;;;13.80;93.50;;;;;;4975331;28;20223;-85
2021/10/01 20:22:46;;;;;;;5.65;4.63;;;13.90;94.40;;;;;;4960802;28;20274;-82
2021/10/01 20:47:06;;;;;;;5.47;4.25;;;13.80;94.60;;;;;;4969355;29;20296;-83
2021/10/01 20:49:36;;;;;;;4.78;3.58;;;13.80;94.40;;;;;;4970565;29;20234;-84
2021/10/01 20:52:03;;;;;;;5.20;3.63;;;13.80;94.60;;;;;;4968470;28;20238;-83
2021/10/01 20:54:35;;;;;;;5.55;3.97;;;13.70;94.60;;;;;;4969406;29;20546;-85
2021/10/01 20:57:08;;;;;;;6.57;3.95;;;13.70;94.90;;;;;;4971471;28;20203;-84
2021/10/01 20:59:39;;;;;;;3.90;3.60;;;13.70;95.40;;;;;;4969562;28;20561;-85
2021/10/01 21:02:15;;;;;;;3.47;3.17;;;13.70;95.50;;;;;;4969739;28;20303;-84
2021/10/01 21:38:07;;;;;;;5.63;4.20;;;13.70;96.10;;;;;;4966067;28;20204;-85
2021/10/01 21:43:42;;;;;;;10.05;4.60;;;13.70;95.90;;;;;;4982409;28;20619;-84
2021/10/01 21:46:25;;;;;;;5.68;4.60;;;13.80;95.80;;;;;;4974522;28;20222;-82
2021/10/01 21:48:54;;;;;;;5.15;4.63;;;13.80;95.60;;;;;;4978075;28;20231;-84
2021/10/01 21:51:21;;;;;;;5.10;4.35;;;13.70;95.80;;;;;;4972129;28;20304;-84
2021/10/01 21:53:48;;;;;;;6.00;4.20;;;13.70;95.70;;;;;;4975055;28;20202;-83
2021/10/01 21:56:15;;;;;;;6.60;4.90;;;13.70;95.60;;;;;;4977414;28;20640;-82
2021/10/01 21:58:44;;;;;;;5.00;4.50;;;13.70;95.60;;;;;;4977468;28;20195;-85
2021/10/01 22:01:14;;;;;;;7.68;4.90;;;13.70;95.40;;;;;;4980216;28;20215;-85
2021/10/01 22:09:04;;;;;;;7.82;3.83;;;13.60;95.90;;;;;;4967248;29;20230;-83
2021/10/01 22:20:08;;;;;;;7.68;4.80;;;13.60;96.40;;;;;;4947482;29;20244;-83
2021/10/01 22:22:38;;;;;;;8.80;5.45;;;13.60;96.30;;;;;;4946393;29;20238;-84
2021/10/01 22:25:06;;;;;;;6.07;4.78;;;13.50;96.30;;;;;;4963767;29;20632;-83
2021/10/01 22:27:34;;;;;;;5.55;4.75;;;13.50;96.40;;;;;;4966182;29;20246;-84
2021/10/01 22:30:03;;;;;;;8.82;5.38;;;13.50;96.70;;;;;;4984240;28;20273;-83
2021/10/01 22:32:31;;;;;;;6.65;5.03;;;13.40;96.60;;;;;;4989699;28;20226;-84
2021/10/01 22:34:58;;;;;;;7.15;4.90;;;13.40;96.80;;;;;;4973308;29;20195;-84
2021/10/01 22:37:25;;;;;;;9.02;4.85;;;13.30;97.00;;;;;;4972094;29;20207;-85
2021/10/01 22:39:54;;;;;;;6.50;4.60;;;13.30;98.00;;;;;;4972972;29;20218;-84
2021/10/01 22:42:26;;;;;;;6.28;4.38;;;13.30;98.00;;;;;;4973661;28;20231;-84
2021/10/01 22:44:56;;;;;;;5.10;4.57;;;13.30;98.00;;;;;;4974573;29;20226;-88
2021/10/01 22:47:25;;;;;;;6.53;5.00;;;13.20;98.00;;;;;;4977640;29;20205;-87
2021/10/01 22:49:57;;;;;;;8.07;4.85;;;13.20;98.00;;;;;;4974816;29;20232;-87
2021/10/01 22:52:28;;;;;;;6.13;4.70;;;13.20;98.00;;;;;;4966001;28;20231;-86
2021/10/01 22:54:55;;;;;;;5.38;4.50;;;13.20;98.50;;;;;;4967800;28;20218;-87
2021/10/01 22:57:23;;;;;;;6.55;5.28;;;13.20;98.60;;;;;;4966931;29;20202;-86
2021/10/01 22:59:51;;;;;;;7.00;4.45;;;13.10;98.60;;;;;;4976044;28;20210;-88
2021/10/01 23:02:21;;;;;;;4.93;4.43;;;13.10;99.10;;;;;;4966673;29;20239;-88
2021/10/01 23:04:51;;;;;;;5.32;4.43;;;13.10;99.60;;;;;;4966747;28;20626;-84
2021/10/01 23:07:19;;;;;;;6.53;4.63;;;13.10;99.70;;;;;;4969598;29;20591;-86
2021/10/01 23:10:01;;;;;;;5.40;4.60;;;13.10;99.70;;;;;;4972150;28;20216;-89
2021/10/01 23:12:33;;;;;;;6.05;4.47;;;13.10;99.90;;;;;;4979482;28;20241;-89
2021/10/01 23:15:09;;;;;;;5.63;4.80;;;13.10;99.90;;;;;;4979072;28;20202;-90
2021/10/01 23:17:58;;;;;;;5.50;4.60;;;13.10;99.80;;;;;;4978855;28;20586;-88
